This is the latest recevied weather packets stored in our database for station/object EA1IDU-11. If no packets are shown the sender has not sent any weather packets the latest 1 day(s).
| Time | Temp. | Humidity | Pressure | Rain* | Wind** | Luminosity | Snow |
|---|---|---|---|---|---|---|---|
| 1778091204 | 17.78° C | 39% | 1020.7 hPa | - | - | - | - |
| 1778090304 | 18.33° C | 38% | 1020.6 hPa | - | - | - | - |
| 1778084903 | 19.44° C | 36% | 1020.6 hPa | - | - | - | - |
| 1778083103 | 21.67° C | 36% | 1020.7 hPa | - | - | - | - |
| 1778082203 | 21.11° C | 37% | 1020.7 hPa | - | - | - | - |
| 1778081303 | 20.56° C | 38% | 1020.7 hPa | - | - | - | - |
| 1778075002 | 21.67° C | 42% | 1021.7 hPa | - | - | - | - |
| 1778074102 | 21.67° C | 43% | 1021.8 hPa | - | - | - | - |
| 1778073202 | 21.11° C | 44% | 1021.8 hPa | - | - | - | - |
| 1778072302 | 20.56° C | 45% | 1021.9 hPa | - | - | - | - |
| 1778071402 | 22.22° C | 45% | 1022 hPa | - | - | - | - |
| 1778066901 | 21.67° C | 51% | 1022.4 hPa | - | - | - | - |
| 1778066001 | 20° C | 52% | 1022.4 hPa | - | - | - | - |
| 1778065101 | 20° C | 53% | 1022.4 hPa | - | - | - | - |
| 1778064201 | 20.56° C | 53% | 1022.5 hPa | - | - | - | - |
| 1778063301 | 21.67° C | 54% | 1022.6 hPa | - | - | - | - |
| 1778061500 | 20° C | 56% | 1022.6 hPa | - | - | - | - |
| 1778058800 | 19.44° C | 60% | 1022.6 hPa | - | - | - | - |
| 1778057900 | 20° C | 62% | 1022.6 hPa | - | - | - | - |
| 1778057000 | 20° C | 62% | 1022.6 hPa | - | - | - | - |
| 1778056100 | 20° C | 63% | 1022.6 hPa | - | - | - | - |
| 1778055200 | 20° C | 63% | 1022.6 hPa | - | - | - | - |
| 1778054300 | 18.33° C | 63% | 1022.7 hPa | - | - | - | - |
| 1778053400 | 17.22° C | 63% | 1022.6 hPa | - | - | - | - |
| 1778048899 | 10.56° C | 62% | 1022.5 hPa | - | - | - | - |
* Rain since midnight (hover to see other rain measurements)
** Current wind speed in m/s (hover to see current wind gust speed)